Time;durP1;ratioP1;P1;durP2;ratioP2;P2;SDS_P1;SDS_P2;PMS_P1;PMS_P2;Temp;Humidity;BMP_temperature;BMP_pressure;BME280_temperature;BME280_humidity;BME280_pressure;Samples;Min_cycle;Max_cycle;Signal;HPM_P1;HPM_P2
2024/01/04 00:00:04;;;;;;;2.95;0.40;;;;;;;;;;5047075;28;20029;-80
2024/01/04 00:02:31;;;;;;;1.35;0.30;;;;;;;;;;5050972;28;20437;-80
2024/01/04 00:04:57;;;;;;;3.25;0.30;;;;;;;;;;5067602;28;20019;-80
2024/01/04 00:07:24;;;;;;;0.60;0.30;;;;;;;;;;5064183;28;20017;-79
2024/01/04 00:09:51;;;;;;;3.30;0.40;;;;;;;;;;5047356;28;20020;-79
2024/01/04 00:12:17;;;;;;;3.55;0.32;;;;;;;;;;5048729;28;20397;-80
2024/01/04 00:14:43;;;;;;;1.73;0.50;;;;;;;;;;5068949;28;20488;-80
2024/01/04 00:17:09;;;;;;;2.85;0.50;;;;;;;;;;5068780;28;20016;-79
2024/01/04 00:19:35;;;;;;;2.47;0.82;;;;;;;;;;5047305;28;20021;-79
2024/01/04 00:22:01;;;;;;;5.13;0.70;;;;;;;;;;5047177;28;20472;-79
2024/01/04 00:24:27;;;;;;;3.22;0.40;;;;;;;;;;5066828;28;20017;-80
2024/01/04 00:26:53;;;;;;;1.17;0.50;;;;;;;;;;5067531;28;20036;-79
2024/01/04 00:29:19;;;;;;;4.18;0.55;;;;;;;;;;5051788;28;20024;-79
2024/01/04 00:31:45;;;;;;;3.80;0.52;;;;;;;;;;5048734;28;20040;-80
2024/01/04 00:34:11;;;;;;;4.90;0.82;;;;;;;;;;5062939;28;20410;-80
2024/01/04 00:36:37;;;;;;;2.45;0.43;;;;;;;;;;5067930;28;20016;-80
2024/01/04 00:39:03;;;;;;;4.80;0.60;;;;;;;;;;5053689;28;20067;-80
2024/01/04 00:41:29;;;;;;;1.35;0.43;;;;;;;;;;5047678;28;20029;-80
2024/01/04 00:43:55;;;;;;;4.47;0.65;;;;;;;;;;5058968;28;20171;-79
2024/01/04 00:46:21;;;;;;;0.50;0.30;;;;;;;;;;5066950;28;20020;-80
2024/01/04 00:48:47;;;;;;;2.97;0.50;;;;;;;;;;5058072;28;20013;-80
2024/01/04 00:51:13;;;;;;;3.28;0.38;;;;;;;;;;5046980;28;20112;-80
2024/01/04 00:53:39;;;;;;;2.40;0.30;;;;;;;;;;5057088;28;20021;-79
2024/01/04 00:56:06;;;;;;;1.52;0.28;;;;;;;;;;5067075;28;20009;-79
2024/01/04 00:58:32;;;;;;;1.58;0.43;;;;;;;;;;5060665;28;20013;-80
2024/01/04 01:00:58;;;;;;;3.13;0.80;;;;;;;;;;5046532;28;20024;-80
2024/01/04 01:03:24;;;;;;;1.88;0.43;;;;;;;;;;5051897;28;20103;-79
2024/01/04 01:05:50;;;;;;;3.03;0.32;;;;;;;;;;5068109;28;20019;-80
2024/01/04 01:08:16;;;;;;;2.22;0.50;;;;;;;;;;5064940;28;20020;-79
2024/01/04 01:10:43;;;;;;;5.18;0.45;;;;;;;;;;5051909;28;20017;-80
2024/01/04 01:13:09;;;;;;;1.70;0.43;;;;;;;;;;5053782;28;20096;-79
2024/01/04 01:15:35;;;;;;;3.25;0.32;;;;;;;;;;5071577;28;20048;-79
2024/01/04 01:18:01;;;;;;;3.42;0.40;;;;;;;;;;5068842;28;20016;-80
2024/01/04 01:20:27;;;;;;;4.72;0.50;;;;;;;;;;5050431;28;20032;-80
2024/01/04 01:22:53;;;;;;;1.73;0.40;;;;;;;;;;5051148;28;20032;-79
2024/01/04 01:25:19;;;;;;;3.53;0.60;;;;;;;;;;5068693;28;20090;-81
2024/01/04 01:27:45;;;;;;;2.75;0.68;;;;;;;;;;5070317;28;20016;-80
2024/01/04 01:30:11;;;;;;;3.05;0.60;;;;;;;;;;5054492;28;20013;-80
2024/01/04 01:32:37;;;;;;;2.42;0.40;;;;;;;;;;5051511;28;20473;-80
2024/01/04 01:35:04;;;;;;;1.67;0.40;;;;;;;;;;5065691;28;20048;-79
2024/01/04 01:37:30;;;;;;;3.03;0.55;;;;;;;;;;5069317;28;20028;-79
2024/01/04 01:39:56;;;;;;;2.35;0.38;;;;;;;;;;5055509;28;20025;-80
2024/01/04 01:42:22;;;;;;;2.00;0.30;;;;;;;;;;5050206;28;20025;-79
2024/01/04 01:44:48;;;;;;;1.98;1.02;;;;;;;;;;5062855;28;20016;-79
2024/01/04 01:47:14;;;;;;;4.65;0.47;;;;;;;;;;5069696;28;20017;-79
2024/01/04 01:49:40;;;;;;;3.17;0.50;;;;;;;;;;5058335;28;20237;-79
2024/01/04 01:52:07;;;;;;;2.88;0.60;;;;;;;;;;5049802;28;20023;-79
2024/01/04 01:54:33;;;;;;;1.95;0.40;;;;;;;;;;5059974;28;20042;-79
2024/01/04 01:56:59;;;;;;;2.75;0.43;;;;;;;;;;5069222;28;20420;-80
2024/01/04 01:59:25;;;;;;;1.85;0.30;;;;;;;;;;5061296;28;20047;-79
2024/01/04 02:01:52;;;;;;;5.88;0.68;;;;;;;;;;5049664;28;20396;-80
2024/01/04 02:04:18;;;;;;;1.05;0.30;;;;;;;;;;5057704;28;20018;-80
2024/01/04 02:06:44;;;;;;;2.80;0.30;;;;;;;;;;5069176;28;20104;-79
2024/01/04 02:09:10;;;;;;;2.08;0.40;;;;;;;;;;5065605;28;20401;-79
2024/01/04 02:11:36;;;;;;;5.55;0.52;;;;;;;;;;5049674;28;20025;-79
2024/01/04 02:14:02;;;;;;;4.57;0.40;;;;;;;;;;5053074;28;20027;-80
2024/01/04 02:16:28;;;;;;;2.45;0.88;;;;;;;;;;5069257;28;20181;-80
2024/01/04 02:18:54;;;;;;;4.97;0.38;;;;;;;;;;5068207;28;20074;-79
2024/01/04 02:21:20;;;;;;;3.28;0.60;;;;;;;;;;5048511;28;20021;-79
2024/01/04 02:23:46;;;;;;;0.65;0.30;;;;;;;;;;5049424;28;20827;-80
2024/01/04 02:26:12;;;;;;;2.17;0.30;;;;;;;;;;5069125;28;20372;-79
2024/01/04 02:28:38;;;;;;;4.50;0.52;;;;;;;;;;5070545;28;20036;-79
2024/01/04 02:31:04;;;;;;;1.38;0.40;;;;;;;;;;5050064;28;20060;-79
2024/01/04 02:33:30;;;;;;;2.08;0.30;;;;;;;;;;5049587;28;20435;-79
2024/01/04 02:35:56;;;;;;;2.50;0.68;;;;;;;;;;5065919;28;20094;-79
2024/01/04 02:38:22;;;;;;;0.43;0.30;;;;;;;;;;5070015;28;20086;-79
2024/01/04 02:40:48;;;;;;;2.05;0.38;;;;;;;;;;5052965;28;20021;-79
2024/01/04 02:43:14;;;;;;;2.08;0.30;;;;;;;;;;5049761;28;20025;-80
2024/01/04 02:45:41;;;;;;;1.95;0.30;;;;;;;;;;5064434;28;20012;-79
2024/01/04 02:48:07;;;;;;;1.92;0.98;;;;;;;;;;5069838;28;20013;-79
2024/01/04 02:50:33;;;;;;;2.28;0.40;;;;;;;;;;5056614;28;20029;-79
2024/01/04 02:52:59;;;;;;;2.28;0.80;;;;;;;;;;5049674;28;20397;-79
2024/01/04 02:55:25;;;;;;;1.88;0.50;;;;;;;;;;5059793;28;20025;-80
2024/01/04 02:57:51;;;;;;;2.03;0.57;;;;;;;;;;5069978;28;20017;-79
2024/01/04 03:00:18;;;;;;;1.75;0.25;;;;;;;;;;5060149;28;20028;-80
2024/01/04 03:02:44;;;;;;;2.53;0.40;;;;;;;;;;5050113;28;20096;-79
2024/01/04 03:05:10;;;;;;;1.25;0.30;;;;;;;;;;5056366;28;20020;-79
2024/01/04 03:07:36;;;;;;;1.85;0.40;;;;;;;;;;5068603;28;20008;-79
2024/01/04 03:10:02;;;;;;;3.40;0.50;;;;;;;;;;5063006;28;20520;-79
2024/01/04 03:12:28;;;;;;;3.20;0.40;;;;;;;;;;5048928;28;20013;-79
2024/01/04 03:14:54;;;;;;;2.88;0.52;;;;;;;;;;5054627;28;20673;-79
2024/01/04 03:17:21;;;;;;;3.60;0.40;;;;;;;;;;5068266;28;20109;-79
2024/01/04 03:19:47;;;;;;;3.30;0.50;;;;;;;;;;5064480;28;20381;-79
2024/01/04 03:22:13;;;;;;;4.85;0.70;;;;;;;;;;5048948;28;20039;-79
2024/01/04 03:24:39;;;;;;;4.13;0.40;;;;;;;;;;5051091;28;20020;-80
2024/01/04 03:27:05;;;;;;;3.42;0.47;;;;;;;;;;5069460;28;20080;-79
2024/01/04 03:29:31;;;;;;;1.08;0.45;;;;;;;;;;5067608;28;20479;-79
2024/01/04 03:31:57;;;;;;;2.63;0.68;;;;;;;;;;5047716;28;20013;-80
2024/01/04 03:34:23;;;;;;;2.75;0.55;;;;;;;;;;5049195;28;20045;-79
2024/01/04 03:36:49;;;;;;;2.65;0.68;;;;;;;;;;5066166;28;20546;-79
2024/01/04 03:39:15;;;;;;;1.38;0.30;;;;;;;;;;5067870;28;20028;-79
2024/01/04 03:41:41;;;;;;;2.17;0.30;;;;;;;;;;5051017;28;20029;-79
2024/01/04 03:44:07;;;;;;;1.38;0.40;;;;;;;;;;5047759;28;20450;-79
2024/01/04 03:46:33;;;;;;;2.40;0.40;;;;;;;;;;5062875;28;20066;-79
2024/01/04 03:48:59;;;;;;;2.17;0.30;;;;;;;;;;5067635;28;20377;-79
2024/01/04 03:51:25;;;;;;;2.83;0.45;;;;;;;;;;5055305;28;20036;-79
2024/01/04 03:53:51;;;;;;;2.47;0.40;;;;;;;;;;5047504;28;20051;-79
2024/01/04 03:56:17;;;;;;;3.50;0.75;;;;;;;;;;5059614;28;20138;-79
2024/01/04 03:58:43;;;;;;;2.28;0.38;;;;;;;;;;5067359;28;20013;-79
2024/01/04 04:01:09;;;;;;;1.33;0.30;;;;;;;;;;5060661;28;20385;-79
2024/01/04 04:03:35;;;;;;;2.70;0.30;;;;;;;;;;5047717;28;20112;-79
2024/01/04 04:06:05;;;;;;;2.20;0.40;;;;;;;;;;5053967;28;20012;-78
2024/01/04 04:08:31;;;;;;;1.30;0.40;;;;;;;;;;5068568;28;20997;-79
2024/01/04 04:10:57;;;;;;;3.67;0.50;;;;;;;;;;5064105;28;20048;-79
2024/01/04 04:13:23;;;;;;;2.25;0.40;;;;;;;;;;5047711;28;20056;-79
2024/01/04 04:15:49;;;;;;;2.33;0.40;;;;;;;;;;5050552;28;20024;-79
2024/01/04 04:18:15;;;;;;;4.18;0.60;;;;;;;;;;5067624;28;20012;-79
2024/01/04 04:20:41;;;;;;;2.65;0.50;;;;;;;;;;5066342;28;20073;-80
2024/01/04 04:23:07;;;;;;;4.25;0.40;;;;;;;;;;5048749;28;20491;-81
2024/01/04 04:25:36;;;;;;;2.35;0.30;;;;;;;;;;5047634;28;20021;-79
2024/01/04 04:28:03;;;;;;;3.85;0.40;;;;;;;;;;5068136;28;20052;-79
2024/01/04 04:30:29;;;;;;;2.80;0.43;;;;;;;;;;5067476;28;20008;-79
2024/01/04 04:32:56;;;;;;;3.75;0.40;;;;;;;;;;5049305;28;20160;-79
2024/01/04 04:35:22;;;;;;;2.40;0.50;;;;;;;;;;5047062;28;20404;-79
2024/01/04 04:37:48;;;;;;;2.40;0.40;;;;;;;;;;5063558;28;20020;-79
2024/01/04 04:40:14;;;;;;;3.30;0.40;;;;;;;;;;5068890;28;20020;-79
2024/01/04 04:42:40;;;;;;;3.38;0.35;;;;;;;;;;5055794;28;20040;-79
2024/01/04 04:45:06;;;;;;;3.15;0.70;;;;;;;;;;5051161;28;20017;-79
2024/01/04 04:47:32;;;;;;;4.60;0.40;;;;;;;;;;5065993;28;20441;-79
2024/01/04 04:49:58;;;;;;;2.95;0.30;;;;;;;;;;5070756;28;20009;-79
2024/01/04 04:52:24;;;;;;;2.88;0.45;;;;;;;;;;5057861;28;20036;-79
2024/01/04 04:54:50;;;;;;;2.30;0.28;;;;;;;;;;5050632;28;20307;-79
2024/01/04 04:57:16;;;;;;;1.50;0.30;;;;;;;;;;5050419;28;20075;-79
2024/01/04 04:59:42;;;;;;;3.80;0.60;;;;;;;;;;5050880;28;20064;-79
2024/01/04 05:02:08;;;;;;;3.15;0.57;;;;;;;;;;5059724;28;20031;-79
2024/01/04 05:04:34;;;;;;;0.90;0.40;;;;;;;;;;5070442;28;20009;-79
2024/01/04 05:07:00;;;;;;;1.98;0.40;;;;;;;;;;5064123;28;20431;-79
2024/01/04 05:09:26;;;;;;;2.88;0.22;;;;;;;;;;5052447;28;20223;-79
2024/01/04 05:11:52;;;;;;;2.53;0.40;;;;;;;;;;5054273;28;20044;-79
2024/01/04 05:14:18;;;;;;;1.75;0.32;;;;;;;;;;5072554;28;20051;-79
2024/01/04 05:16:44;;;;;;;4.60;0.40;;;;;;;;;;5071584;28;20487;-78
2024/01/04 05:19:10;;;;;;;1.27;0.30;;;;;;;;;;5050452;28;20016;-79
2024/01/04 05:21:37;;;;;;;3.92;0.68;;;;;;;;;;5051031;28;20025;-79
2024/01/04 05:24:03;;;;;;;3.10;0.55;;;;;;;;;;5069887;28;20061;-78
2024/01/04 05:26:29;;;;;;;2.28;0.50;;;;;;;;;;5070418;28;20066;-78
2024/01/04 05:28:55;;;;;;;4.05;0.30;;;;;;;;;;5052630;28;20074;-80
2024/01/04 05:31:21;;;;;;;4.65;0.50;;;;;;;;;;5050150;28;20021;-79
2024/01/04 05:33:47;;;;;;;2.83;0.52;;;;;;;;;;5064187;28;20431;-79
2024/01/04 05:36:13;;;;;;;2.05;0.40;;;;;;;;;;5069740;28;20033;-78
2024/01/04 05:38:39;;;;;;;5.25;0.60;;;;;;;;;;5056831;28;20020;-79
2024/01/04 05:41:05;;;;;;;4.88;0.50;;;;;;;;;;5050175;28;20017;-79
2024/01/04 05:43:33;;;;;;;2.35;0.52;;;;;;;;;;5059249;28;20078;-79
2024/01/04 05:45:59;;;;;;;5.07;0.60;;;;;;;;;;5070041;28;20063;-79
2024/01/04 05:48:25;;;;;;;2.38;0.38;;;;;;;;;;5061854;28;20174;-78
2024/01/04 05:50:51;;;;;;;1.95;0.40;;;;;;;;;;5050436;28;20088;-78
2024/01/04 05:53:17;;;;;;;1.40;0.52;;;;;;;;;;5055673;28;20028;-79
2024/01/04 05:55:43;;;;;;;5.68;0.60;;;;;;;;;;5069881;28;20019;-79
2024/01/04 05:58:09;;;;;;;3.30;0.70;;;;;;;;;;5064825;28;20032;-78
2024/01/04 06:00:35;;;;;;;2.88;0.38;;;;;;;;;;5049895;28;20017;-79
2024/01/04 06:03:01;;;;;;;3.08;0.88;;;;;;;;;;5053831;28;20031;-79
2024/01/04 06:05:27;;;;;;;2.13;0.70;;;;;;;;;;5069245;28;20008;-79
2024/01/04 06:07:53;;;;;;;2.45;0.50;;;;;;;;;;5068909;28;20097;-78
2024/01/04 06:10:20;;;;;;;3.22;0.32;;;;;;;;;;5049778;28;20016;-79
2024/01/04 06:12:46;;;;;;;3.05;0.63;;;;;;;;;;5049721;28;20041;-79
2024/01/04 06:15:12;;;;;;;4.18;0.50;;;;;;;;;;5069543;28;20385;-79
2024/01/04 06:17:38;;;;;;;2.15;0.68;;;;;;;;;;5069593;28;20016;-78
2024/01/04 06:20:04;;;;;;;3.78;0.50;;;;;;;;;;5051906;28;20025;-78
2024/01/04 06:22:30;;;;;;;1.75;0.50;;;;;;;;;;5048735;28;20098;-79
2024/01/04 06:24:56;;;;;;;2.60;0.68;;;;;;;;;;5067004;28;20095;-79
2024/01/04 06:27:22;;;;;;;2.80;0.50;;;;;;;;;;5068950;28;20128;-78
2024/01/04 06:29:48;;;;;;;3.33;0.60;;;;;;;;;;5053877;28;20020;-79
2024/01/04 06:32:14;;;;;;;2.90;0.60;;;;;;;;;;5049914;28;20075;-78
2024/01/04 06:34:41;;;;;;;3.35;0.82;;;;;;;;;;5062873;28;20673;-79
2024/01/04 06:37:07;;;;;;;2.95;0.65;;;;;;;;;;5068508;28;20019;-79
2024/01/04 06:39:33;;;;;;;2.17;0.40;;;;;;;;;;5057103;28;20052;-79
2024/01/04 06:42:04;;;;;;;1.98;0.68;;;;;;;;;;5048700;28;20021;-78
2024/01/04 06:44:30;;;;;;;2.35;0.77;;;;;;;;;;5060360;28;20055;-79
2024/01/04 06:46:56;;;;;;;1.52;0.68;;;;;;;;;;5068995;28;20367;-79
2024/01/04 06:49:22;;;;;;;2.80;0.80;;;;;;;;;;5059125;28;20021;-79
2024/01/04 06:51:48;;;;;;;3.50;0.57;;;;;;;;;;5048018;28;20145;-79
2024/01/04 06:54:14;;;;;;;1.50;0.50;;;;;;;;;;5057021;28;20500;-78
2024/01/04 06:56:40;;;;;;;2.63;0.60;;;;;;;;;;5068590;28;20013;-78
2024/01/04 06:59:06;;;;;;;3.10;0.68;;;;;;;;;;5061586;28;20027;-81
2024/01/04 07:01:32;;;;;;;1.50;0.65;;;;;;;;;;5049854;28;20028;-80
2024/01/04 07:03:58;;;;;;;3.88;0.70;;;;;;;;;;5054116;28;20104;-81
2024/01/04 07:06:24;;;;;;;1.67;0.90;;;;;;;;;;5055501;28;20009;-79
2024/01/04 07:08:51;;;;;;;2.42;0.60;;;;;;;;;;5049483;28;20024;-79
2024/01/04 07:11:17;;;;;;;2.20;0.77;;;;;;;;;;5047746;28;20228;-79
2024/01/04 07:13:43;;;;;;;2.75;0.65;;;;;;;;;;5048662;28;20021;-79
2024/01/04 07:16:09;;;;;;;1.38;0.45;;;;;;;;;;5047471;28;20028;-79
2024/01/04 07:18:35;;;;;;;3.63;0.73;;;;;;;;;;5048035;28;20585;-79
2024/01/04 07:21:03;;;;;;;5.95;1.17;;;;;;;;;;5047267;28;20488;-79
2024/01/04 07:23:30;;;;;;;7.85;2.50;;;;;;;;;;5047891;28;20028;-79
2024/01/04 07:25:56;;;;;;;10.80;3.03;;;;;;;;;;5052348;28;20074;-79
2024/01/04 07:28:22;;;;;;;11.52;2.45;;;;;;;;;;5054159;28;20074;-79
2024/01/04 07:30:48;;;;;;;29.55;9.55;;;;;;;;;;5057611;28;20048;-79
2024/01/04 07:33:15;;;;;;;30.75;9.25;;;;;;;;;;5057025;28;20140;-80
2024/01/04 07:35:41;;;;;;;16.50;5.35;;;;;;;;;;5066193;28;20054;-80
2024/01/04 07:38:07;;;;;;;4.85;1.17;;;;;;;;;;5067762;28;20400;-79
2024/01/04 07:40:33;;;;;;;6.30;1.30;;;;;;;;;;5056932;28;20021;-80
2024/01/04 07:42:59;;;;;;;5.63;0.70;;;;;;;;;;5047710;28;20410;-80
2024/01/04 07:45:25;;;;;;;3.03;1.05;;;;;;;;;;5057221;28;20016;-79
2024/01/04 07:47:51;;;;;;;4.22;0.90;;;;;;;;;;5068148;28;20017;-80
2024/01/04 07:50:17;;;;;;;7.30;0.80;;;;;;;;;;5059778;28;20047;-81
2024/01/04 07:52:43;;;;;;;4.78;0.75;;;;;;;;;;5047850;28;20023;-80
2024/01/04 07:55:09;;;;;;;1.20;0.75;;;;;;;;;;5053880;28;20247;-80
2024/01/04 07:57:35;;;;;;;4.22;0.88;;;;;;;;;;5067908;28;20020;-83
2024/01/04 08:00:03;;;;;;;4.57;1.67;;;;;;;;;;5062539;28;20021;-80
2024/01/04 08:02:31;;;;;;;2.20;0.90;;;;;;;;;;5048718;28;20020;-80
2024/01/04 08:04:57;;;;;;;3.58;1.10;;;;;;;;;;5051184;28;20017;-80
2024/01/04 08:07:23;;;;;;;2.88;1.35;;;;;;;;;;5067586;28;20070;-80
2024/01/04 08:09:49;;;;;;;4.13;1.67;;;;;;;;;;5066361;28;20012;-80
2024/01/04 08:12:16;;;;;;;3.92;2.30;;;;;;;;;;5047852;28;20032;-81
2024/01/04 08:14:42;;;;;;;5.32;2.38;;;;;;;;;;5047900;28;20028;-81
2024/01/04 08:17:08;;;;;;;3.85;1.77;;;;;;;;;;5070241;28;20444;-80
2024/01/04 08:19:34;;;;;;;2.30;1.00;;;;;;;;;;5072768;28;20025;-81
2024/01/04 08:22:00;;;;;;;5.22;1.20;;;;;;;;;;5054462;28;20539;-80
2024/01/04 08:24:26;;;;;;;5.25;0.93;;;;;;;;;;5052765;28;20129;-79
2024/01/04 08:26:52;;;;;;;2.67;0.93;;;;;;;;;;5064325;28;20140;-82
2024/01/04 08:29:18;;;;;;;4.97;0.80;;;;;;;;;;5061866;28;20041;-79
2024/01/04 08:31:44;;;;;;;4.18;1.00;;;;;;;;;;5062538;28;20017;-78
2024/01/04 08:34:10;;;;;;;3.15;0.70;;;;;;;;;;5062205;28;20058;-79
2024/01/04 08:36:36;;;;;;;3.10;0.73;;;;;;;;;;5060866;28;20020;-79
2024/01/04 08:39:03;;;;;;;3.17;0.93;;;;;;;;;;5060395;28;20158;-79
2024/01/04 08:41:29;;;;;;;4.10;0.82;;;;;;;;;;5060395;28;20028;-79
2024/01/04 08:43:56;;;;;;;2.75;0.73;;;;;;;;;;5057198;28;20116;-79
2024/01/04 08:46:22;;;;;;;2.90;0.88;;;;;;;;;;5054974;28;20025;-80
2024/01/04 08:48:48;;;;;;;2.63;0.60;;;;;;;;;;5057479;28;20017;-79
2024/01/04 08:51:14;;;;;;;1.15;0.63;;;;;;;;;;5061810;28;20073;-79
2024/01/04 08:53:41;;;;;;;6.07;2.83;;;;;;;;;;5059072;28;20340;-79
2024/01/04 08:56:13;;;;;;;4.65;1.25;;;;;;;;;;5059491;28;20025;-79
2024/01/04 08:58:39;;;;;;;3.08;1.05;;;;;;;;;;5050356;28;20009;-79
2024/01/04 09:01:05;;;;;;;2.45;0.70;;;;;;;;;;5052582;28;20358;-79
2024/01/04 09:03:32;;;;;;;3.00;0.75;;;;;;;;;;5051205;28;20079;-79
2024/01/04 09:05:58;;;;;;;1.40;0.68;;;;;;;;;;5063572;28;20024;-79
2024/01/04 09:08:24;;;;;;;2.72;0.60;;;;;;;;;;5060476;28;20016;-79
2024/01/04 09:10:50;;;;;;;1.98;0.73;;;;;;;;;;5063291;28;20464;-79
2024/01/04 09:13:17;;;;;;;2.22;1.23;;;;;;;;;;5056203;28;20100;-79
2024/01/04 09:15:43;;;;;;;2.72;0.80;;;;;;;;;;5061585;28;20074;-82
2024/01/04 09:18:09;;;;;;;4.55;1.02;;;;;;;;;;5059622;28;20017;-82
2024/01/04 09:20:35;;;;;;;4.18;1.00;;;;;;;;;;5062011;28;20125;-82
2024/01/04 09:23:01;;;;;;;2.22;0.75;;;;;;;;;;5053471;28;20088;-80
2024/01/04 09:25:27;;;;;;;2.30;0.80;;;;;;;;;;5051263;28;20025;-80
2024/01/04 09:27:53;;;;;;;1.85;0.90;;;;;;;;;;5057622;28;20009;-80
2024/01/04 09:30:20;;;;;;;3.58;0.93;;;;;;;;;;5050933;28;20025;-81
2024/01/04 09:32:46;;;;;;;4.68;1.02;;;;;;;;;;5068487;28;20103;-80
2024/01/04 09:35:12;;;;;;;3.30;1.00;;;;;;;;;;5069110;28;20365;-80
2024/01/04 09:37:38;;;;;;;5.93;1.15;;;;;;;;;;5053086;28;20477;-80
2024/01/04 09:40:04;;;;;;;9.13;3.25;;;;;;;;;;5049037;28;20037;-80
2024/01/04 09:42:32;;;;;;;20.48;7.00;;;;;;;;;;5065347;28;20069;-80
2024/01/04 09:45:00;;;;;;;6.63;2.50;;;;;;;;;;5071098;28;20489;-81
2024/01/04 09:47:27;;;;;;;4.80;1.52;;;;;;;;;;5054164;28;20028;-80
2024/01/04 09:49:54;;;;;;;4.93;1.80;;;;;;;;;;5050065;28;20016;-80
2024/01/04 09:52:22;;;;;;;7.10;2.80;;;;;;;;;;5062360;28;20314;-80
2024/01/04 09:54:48;;;;;;;2.53;1.05;;;;;;;;;;5067981;28;20012;-80
2024/01/04 09:57:15;;;;;;;3.60;0.80;;;;;;;;;;5056508;28;20029;-80
2024/01/04 09:59:41;;;;;;;3.45;1.50;;;;;;;;;;5050821;28;20013;-80
2024/01/04 10:02:11;;;;;;;5.68;1.67;;;;;;;;;;5060253;28;20489;-80
2024/01/04 10:04:39;;;;;;;3.65;1.05;;;;;;;;;;5069309;28;20020;-80
2024/01/04 10:07:07;;;;;;;7.03;2.28;;;;;;;;;;5069710;28;20009;-80
2024/01/04 10:10:00;;;;;;;5.72;1.80;;;;;;;;;;5070407;28;20020;-80
2024/01/04 10:12:32;;;;;;;6.68;2.53;;;;;;;;;;5053337;28;20512;-80
2024/01/04 10:14:59;;;;;;;5.25;1.50;;;;;;;;;;5048955;28;20170;-82
2024/01/04 10:17:25;;;;;;;3.92;1.00;;;;;;;;;;5061040;28;20038;-80
2024/01/04 10:19:51;;;;;;;5.60;2.35;;;;;;;;;;5068778;28;20060;-80
2024/01/04 10:22:20;;;;;;;6.28;1.60;;;;;;;;;;5057957;28;20112;-78
2024/01/04 10:24:47;;;;;;;3.00;1.60;;;;;;;;;;5048086;28;20473;-80
2024/01/04 10:27:15;;;;;;;4.38;1.73;;;;;;;;;;5057796;28;20383;-80
2024/01/04 10:29:44;;;;;;;6.93;2.70;;;;;;;;;;5068566;28;20052;-80
2024/01/04 10:32:12;;;;;;;5.00;1.50;;;;;;;;;;5053102;28;20488;-80
2024/01/04 10:34:39;;;;;;;7.80;2.50;;;;;;;;;;5044757;28;20028;-80
2024/01/04 10:37:09;;;;;;;3.67;1.70;;;;;;;;;;5049513;28;20055;-80
2024/01/04 10:39:36;;;;;;;6.32;2.53;;;;;;;;;;5048388;28;20024;-80
2024/01/04 10:42:02;;;;;;;2.47;1.48;;;;;;;;;;5045467;28;20113;-80
2024/01/04 10:44:29;;;;;;;3.35;1.77;;;;;;;;;;5044511;28;20041;-80
2024/01/04 10:46:59;;;;;;;7.93;2.47;;;;;;;;;;5050903;28;20025;-81
2024/01/04 10:49:25;;;;;;;4.40;1.20;;;;;;;;;;5050769;28;20017;-80
2024/01/04 10:51:58;;;;;;;3.45;0.70;;;;;;;;;;5046284;28;20025;-80
2024/01/04 10:54:33;;;;;;;4.47;2.13;;;;;;;;;;5054819;28;20033;-80
2024/01/04 10:57:00;;;;;;;3.92;0.68;;;;;;;;;;5048689;28;20519;-80
2024/01/04 10:59:30;;;;;;;9.73;1.73;;;;;;;;;;5050155;28;20368;-80
2024/01/04 11:01:57;;;;;;;4.55;0.93;;;;;;;;;;5048342;28;20025;-80
2024/01/04 11:04:24;;;;;;;3.83;0.63;;;;;;;;;;5043801;28;20021;-80
2024/01/04 11:06:52;;;;;;;3.80;1.50;;;;;;;;;;5048897;28;20028;-80
2024/01/04 11:09:21;;;;;;;4.68;1.30;;;;;;;;;;5033404;28;20017;-80
2024/01/04 11:11:51;;;;;;;6.38;3.17;;;;;;;;;;5045875;28;20440;-80
2024/01/04 11:14:18;;;;;;;4.43;1.60;;;;;;;;;;5027774;28;20022;-80
2024/01/04 11:17:03;;;;;;;4.75;2.53;;;;;;;;;;5045329;28;20021;-80
2024/01/04 11:19:48;;;;;;;12.93;3.72;;;;;;;;;;5054132;28;20017;-80
2024/01/04 11:22:21;;;;;;;8.52;3.20;;;;;;;;;;5040318;28;20114;-80
2024/01/04 11:24:47;;;;;;;5.90;2.33;;;;;;;;;;5049089;28;20063;-80
2024/01/04 11:27:17;;;;;;;5.18;2.20;;;;;;;;;;5043748;28;20116;-80
2024/01/04 11:29:43;;;;;;;3.80;1.42;;;;;;;;;;5048457;28;20151;-80
2024/01/04 11:32:10;;;;;;;4.07;0.82;;;;;;;;;;5051235;28;20037;-80
2024/01/04 11:34:37;;;;;;;4.57;0.82;;;;;;;;;;5050718;28;20049;-80
2024/01/04 11:37:09;;;;;;;4.18;0.60;;;;;;;;;;5038272;28;20022;-80
2024/01/04 11:39:45;;;;;;;3.67;0.80;;;;;;;;;;5037419;28;20025;-80
2024/01/04 11:42:14;;;;;;;4.82;0.80;;;;;;;;;;5045436;28;20031;-80
2024/01/04 11:44:41;;;;;;;2.53;0.70;;;;;;;;;;5041136;28;20076;-82
2024/01/04 11:47:14;;;;;;;5.75;0.95;;;;;;;;;;5051232;28;20496;-78
2024/01/04 11:49:47;;;;;;;1.67;0.70;;;;;;;;;;5047742;28;20025;-79
2024/01/04 11:52:15;;;;;;;4.15;0.90;;;;;;;;;;5048251;28;20009;-81
2024/01/04 11:54:41;;;;;;;2.70;0.80;;;;;;;;;;5038948;28;20558;-82
2024/01/04 11:57:17;;;;;;;2.63;1.15;;;;;;;;;;5051151;28;20031;-78
2024/01/04 11:59:43;;;;;;;3.78;1.25;;;;;;;;;;5029045;28;20025;-79
2024/01/04 12:02:17;;;;;;;3.80;1.10;;;;;;;;;;5046504;28;20025;-77
2024/01/04 12:04:43;;;;;;;3.70;0.90;;;;;;;;;;5048271;28;20040;-77
2024/01/04 12:07:10;;;;;;;1.92;0.80;;;;;;;;;;5046612;28;20009;-77
2024/01/04 12:09:36;;;;;;;4.03;0.93;;;;;;;;;;5052742;28;20013;-77
2024/01/04 12:12:04;;;;;;;3.78;1.00;;;;;;;;;;5048513;28;20052;-77
2024/01/04 12:14:30;;;;;;;6.43;1.30;;;;;;;;;;5053115;28;20104;-77
2024/01/04 12:16:57;;;;;;;5.70;1.15;;;;;;;;;;5048220;28;20025;-77
2024/01/04 12:19:23;;;;;;;2.80;1.25;;;;;;;;;;5047409;28;20067;-77
2024/01/04 12:21:49;;;;;;;2.90;0.90;;;;;;;;;;5047864;28;20017;-77
2024/01/04 12:24:15;;;;;;;5.07;1.02;;;;;;;;;;5055114;28;20067;-77
2024/01/04 12:26:42;;;;;;;5.95;2.22;;;;;;;;;;5046909;28;20014;-77
2024/01/04 12:29:08;;;;;;;5.60;2.33;;;;;;;;;;5047297;28;20028;-77
2024/01/04 12:31:35;;;;;;;5.25;1.27;;;;;;;;;;5048208;28;20092;-77
2024/01/04 12:34:01;;;;;;;3.05;0.75;;;;;;;;;;5052145;28;20121;-77
2024/01/04 12:36:28;;;;;;;4.53;1.20;;;;;;;;;;5045900;28;21112;-77
2024/01/04 12:39:06;;;;;;;4.13;1.02;;;;;;;;;;5050951;28;20031;-77
2024/01/04 12:41:33;;;;;;;4.72;1.20;;;;;;;;;;5046996;28;20013;-77
2024/01/04 12:44:00;;;;;;;3.95;0.90;;;;;;;;;;5054833;28;20029;-77
2024/01/04 12:46:30;;;;;;;4.47;1.50;;;;;;;;;;5042945;28;20029;-77
2024/01/04 12:48:56;;;;;;;;;;;;;;;;;;5049716;28;20032;-78
2024/01/04 12:51:28;;;;;;;3.70;0.70;;;;;;;;;;5046459;28;19908;-77
2024/01/04 12:53:54;;;;;;;5.03;0.80;;;;;;;;;;5048780;28;20044;-77
2024/01/04 12:56:20;;;;;;;3.58;0.85;;;;;;;;;;5047889;28;20477;-77
2024/01/04 12:58:47;;;;;;;0.95;0.50;;;;;;;;;;5047563;28;20040;-77
2024/01/04 13:01:13;;;;;;;3.28;0.70;;;;;;;;;;5046847;28;20083;-76
2024/01/04 13:03:39;;;;;;;1.95;0.57;;;;;;;;;;5048216;28;20029;-77
2024/01/04 13:06:05;;;;;;;4.03;0.77;;;;;;;;;;5042357;28;20021;-77
2024/01/04 13:08:31;;;;;;;4.32;0.70;;;;;;;;;;5047587;28;20086;-77
2024/01/04 13:10:57;;;;;;;3.08;0.60;;;;;;;;;;5055018;28;20428;-81
2024/01/04 13:13:25;;;;;;;5.18;1.33;;;;;;;;;;5046782;28;20562;-81
2024/01/04 13:15:51;;;;;;;2.42;0.52;;;;;;;;;;5059599;28;20082;-83
2024/01/04 13:18:17;;;;;;;1.45;0.50;;;;;;;;;;5050765;28;20020;-79
2024/01/04 13:20:43;;;;;;;2.78;0.70;;;;;;;;;;5056064;28;20036;-77
2024/01/04 13:23:09;;;;;;;5.63;0.68;;;;;;;;;;5049676;28;20020;-76
2024/01/04 13:25:35;;;;;;;3.08;0.68;;;;;;;;;;5055243;28;20033;-77
2024/01/04 13:28:01;;;;;;;5.45;1.52;;;;;;;;;;5048407;28;20670;-77
2024/01/04 13:30:30;;;;;;;5.38;1.92;;;;;;;;;;5039670;28;20517;-77
2024/01/04 13:32:56;;;;;;;3.67;0.90;;;;;;;;;;5045338;28;20033;-77
2024/01/04 13:35:22;;;;;;;3.38;0.93;;;;;;;;;;5044569;28;20045;-77
2024/01/04 13:37:48;;;;;;;4.15;0.88;;;;;;;;;;5035419;28;20496;-77
2024/01/04 13:40:14;;;;;;;2.42;0.70;;;;;;;;;;5050852;28;20033;-77
2024/01/04 13:42:44;;;;;;;2.95;0.90;;;;;;;;;;5047963;28;20112;-77
2024/01/04 13:45:10;;;;;;;3.43;0.63;;;;;;;;;;5050376;28;20025;-77
2024/01/04 13:47:36;;;;;;;1.70;0.75;;;;;;;;;;5044597;28;20250;-77
2024/01/04 13:50:02;;;;;;;2.85;0.90;;;;;;;;;;5057374;28;20025;-76
2024/01/04 13:52:28;;;;;;;3.40;0.82;;;;;;;;;;5049172;28;20521;-77
2024/01/04 13:54:54;;;;;;;4.93;1.10;;;;;;;;;;5055800;28;20104;-76
2024/01/04 13:57:20;;;;;;;2.13;1.10;;;;;;;;;;5049394;28;20009;-77
2024/01/04 13:59:46;;;;;;;3.47;0.95;;;;;;;;;;5053329;28;20028;-76
2024/01/04 14:02:12;;;;;;;2.80;1.00;;;;;;;;;;5049109;28;20083;-77
2024/01/04 14:04:38;;;;;;;3.05;1.20;;;;;;;;;;5051503;28;20503;-77
2024/01/04 14:07:04;;;;;;;5.15;1.13;;;;;;;;;;5048484;28;20059;-77
2024/01/04 14:09:30;;;;;;;5.25;1.02;;;;;;;;;;5050265;28;20070;-76
2024/01/04 14:11:56;;;;;;;5.07;1.20;;;;;;;;;;5050459;28;20013;-77
2024/01/04 14:14:23;;;;;;;3.15;0.80;;;;;;;;;;5049510;28;20021;-77
2024/01/04 14:16:50;;;;;;;3.47;0.90;;;;;;;;;;5048110;28;20798;-77
2024/01/04 14:19:16;;;;;;;4.53;0.98;;;;;;;;;;5050194;28;20028;-77
2024/01/04 14:21:41;;;;;;;3.08;0.95;;;;;;;;;;5049996;28;20021;-77
2024/01/04 14:24:08;;;;;;;3.63;0.90;;;;;;;;;;5048655;28;20032;-77
2024/01/04 14:26:34;;;;;;;2.17;1.00;;;;;;;;;;5049188;28;20021;-77
2024/01/04 14:29:00;;;;;;;3.53;1.20;;;;;;;;;;5049584;28;20405;-77
2024/01/04 14:31:27;;;;;;;3.17;0.70;;;;;;;;;;5058280;28;20024;-76
2024/01/04 14:33:53;;;;;;;1.88;0.60;;;;;;;;;;5047346;28;20028;-78
2024/01/04 14:36:20;;;;;;;4.60;0.98;;;;;;;;;;5053578;28;20045;-77
2024/01/04 14:38:48;;;;;;;3.50;0.93;;;;;;;;;;5048387;28;20103;-77